Etusivu
METAR-TAF:

METAR-TAF

Lentoasemat :

Selma, Alabama, Yhdysvallat

Leveyspiiri: 32-20-38N, Pituuspiiri: 086-59-16W, korkeus merenpinnasta: 51 m

Tämänhetkinen sää

Tämä raportti tehtiin 10 minuuttia sitten, kello 23.35 UTC
Tuuli 13 kn kaakosta
Lämpötila 16°C
Kosteus 100%
Ilmanpaine 1010 hPa
Näkyvyys: 8.0 km
heikkoa sadetta

METAR: KSEM 252335Z AUTO 13013KT 5SM -RA 16/16 A2983 RMK AO2 LTG DSNT S

Aika: 18:45 (23:45 UTC)


TAF: puuttuu

Säähavainnot ja -ennusteet yli 4000 lentoasemalta (METAR- ja TAF-raportit).

Käytössä olevat sääasemat on merkitty karttaan keltaisilla ja punaisilla pisteillä.

Aseta hiiri pisteen päälle nähdäksesi sääaseman nimen.

Klikkaa sitten nähdäksesi säähavainnot ja -ennusteet.

Kartan vaihtaminen: klikkaa mustalla rastilla varustettuja vihreitä pisteitä, niin voit zoomata sisään; viivalla varustettua vihreää pistettä, niin voit zoomata ulos tai vihreitä nuolia, niin pääset viereisille kartoille.


METAR-TAF: